Dan Fighter — OVUE2 — position and weather

sailwx.info

Track history (hours):
 
Tides and Currents Weather Stations Pressure Air Temp Water Temp Dewpoint Dewpoint Depression Visibility Wind Speed Wind Dir Waves Ship Positions

Dan Fighter

Last reported at 2014-Sep-06 15:23 UTC. Time now 2014-Sep-18 05:42 UTC.
Position N 36°05' E 014°48'.
Warning: this ship's position is 11 days out of date.

Length 64 m; draft 3.1 m.

Type: Cargo ship. MMSI: 220386978.

Date/timePositionNaut miles runAvg speedWind from/ knotsBaromVisibWave heightAir tempDewpointWater temp
2014-Sep-06 15:23N 36°05' E 014°48'6 7.6
2014-Sep-06 14:33N 35°60' E 014°43'8 7.6
2014-Sep-06 13:32N 35°53' E 014°38'4 3.5
2014-Sep-06 12:29N 35°50' E 014°36'0 0.0
2014-Sep-06 11:32N 35°50' E 014°36'0 0.0
2014-Sep-06 09:26N 35°50' E 014°36'127 7.9
2014-Sep-05 17:23N 36°54' E 012°19'17 8.4
2014-Sep-05 15:21N 37°01' E 012°00'10 8.1
2014-Sep-05 14:05N 37°06' E 011°49'8 8.0
2014-Sep-05 13:04N 37°10' E 011°40'12 8.1
2014-Sep-05 11:33N 37°15' E 011°26'10 8.0
2014-Sep-05 10:16N 37°20' E 011°15'7 8.0
2014-Sep-05 09:26N 37°23' E 011°07'7 8.2
2014-Sep-05 08:34N 37°25' E 010°58'8 8.5
2014-Sep-05 07:33N 37°26' E 010°48'9 8.5
2014-Sep-05 06:34N 37°28' E 010°37'9 8.9
2014-Sep-05 05:32N 37°31' E 010°26'9 8.8
2014-Sep-05 04:33N 37°33' E 010°16'94 8.4
2014-Sep-04 17:26N 37°18' E 008°19'186 8.0
2014-Sep-03 18:08N 37°05' E 004°26'5 8.1
2014-Sep-03 17:31N 37°04' E 004°20'47 7.3
2014-Sep-03 11:09N 36°58' E 003°22'29 7.1
2014-Sep-03 07:04N 36°52' E 002°46'12 7.8
2014-Sep-03 05:33N 36°50' E 002°32'33 8.2
2014-Sep-03 01:29N 36°43' E 001°51'11 8.4
2014-Sep-03 00:11N 36°41' E 001°37'24 8.3
2014-Sep-02 21:20N 36°37' E 001°08'15 8.1
2014-Sep-02 19:32N 36°32' E 000°51'8 7.5
2014-Sep-02 18:29N 36°28' E 000°42'7 7.1
2014-Sep-02 17:32N 36°25' E 000°35'7 7.3
2014-Sep-02 16:33N 36°22' E 000°27'9 7.1
2014-Sep-02 15:18N 36°18' E 000°17'16 7.4
2014-Sep-02 13:10N 36°06' E 000°04'5 7.9
2014-Sep-02 12:33N 36°02' E 000°02'6 5.6
2014-Sep-02 11:31N 35°56' E 000°04'0 0.0
2014-Sep-02 10:11N 35°56' E 000°04'0 0.0
2014-Sep-02 08:17N 35°56' E 000°04'0 0.0
2014-Sep-02 07:23N 35°56' E 000°04'0 0.0
2014-Sep-02 01:11N 35°56' E 000°04'0 0.0
2014-Sep-01 23:11N 35°56' E 000°04'0 0.0
2014-Sep-01 22:17N 35°56' E 000°04'0 0.0
2014-Sep-01 21:17N 35°56' E 000°04'0 0.0
2014-Sep-01 20:29N 35°56' E 000°04'0 0.0
2014-Sep-01 19:32N 35°56' E 000°04'0 0.0
2014-Sep-01 18:29N 35°56' E 000°05'1 1.5
2014-Sep-01 17:34N 35°56' E 000°03'2 2.0
2014-Sep-01 16:32N 35°58' E 000°03'  
2014-Aug-30 07:30N 37°13' E 004°29'6 6.8
2014-Aug-30 06:33N 37°14' E 004°37'7 6.9
2014-Aug-30 05:33N 37°15' E 004°46'7 7.4
2014-Aug-30 04:33N 37°17' E 004°55'8 7.7
2014-Aug-30 03:33N 37°18' E 005°05'8 7.8
2014-Aug-30 02:33N 37°19' E 005°14'8 7.9
2014-Aug-30 01:30N 37°22' E 005°24'16 8.3
2014-Aug-29 23:33N 37°24' E 005°45'9 8.5
2014-Aug-29 22:30N 37°25' E 005°56'9 8.5
2014-Aug-29 21:27N 37°26' E 006°07'8 8.4
2014-Aug-29 20:28N 37°28' E 006°17'73 8.0
2014-Aug-29 11:18N 37°40' E 007°48'6 7.5
2014-Aug-29 10:33N 37°41' E 007°55'18 7.6
2014-Aug-29 08:13N 37°44' E 008°17'38 7.4
2014-Aug-29 03:06N 37°51' E 009°04'18 7.2
2014-Aug-29 00:33N 37°53' E 009°27'7 6.9
2014-Aug-28 23:33N 37°54' E 009°36'7 7.1
2014-Aug-28 22:33N 37°56' E 009°45'7 7.0
2014-Aug-28 21:33N 37°57' E 009°54'7 6.8
2014-Aug-28 20:32N 37°58' E 010°03'7 7.1
2014-Aug-28 19:33N 37°59' E 010°11'7 7.3
2014-Aug-28 18:33N 37°60' E 010°20'7 7.5
2014-Aug-28 17:33N 38°01' E 010°30'8 7.6
2014-Aug-28 16:33N 38°02' E 010°39'166 7.9
2014-Aug-27 19:29N 38°19' E 014°09'11 8.3
2014-Aug-27 18:13N 38°19' E 014°23'5 8.3
2014-Aug-27 17:33N 38°19' E 014°30'8 8.3
2014-Aug-27 16:32N 38°19' E 014°40'  
Track history (hours):
 
Tides and Currents Weather Stations Pressure Air Temp Water Temp Dewpoint Dewpoint Depression Visibility Wind Speed Wind Dir Waves Ship Positions

Dan Fighter

Last reported at 2014-Sep-06 15:23 UTC. Time now 2014-Sep-18 05:42 UTC.
Position N 36°05' E 014°48'.
Warning: this ship's position is 11 days out of date.

Length 64 m; draft 3.1 m.

Type: Cargo ship. MMSI: 220386978.

Date/timePositionNaut miles runAvg speedWind from/ knotsBaromVisibWave heightAir tempDewpointWater temp
2014-Sep-06 15:23N 36°05' E 014°48'6 7.6
2014-Sep-06 14:33N 35°60' E 014°43'8 7.6
2014-Sep-06 13:32N 35°53' E 014°38'4 3.5
2014-Sep-06 12:29N 35°50' E 014°36'0 0.0
2014-Sep-06 11:32N 35°50' E 014°36'0 0.0
2014-Sep-06 09:26N 35°50' E 014°36'127 7.9
2014-Sep-05 17:23N 36°54' E 012°19'17 8.4
2014-Sep-05 15:21N 37°01' E 012°00'10 8.1
2014-Sep-05 14:05N 37°06' E 011°49'8 8.0
2014-Sep-05 13:04N 37°10' E 011°40'12 8.1
2014-Sep-05 11:33N 37°15' E 011°26'10 8.0
2014-Sep-05 10:16N 37°20' E 011°15'7 8.0
2014-Sep-05 09:26N 37°23' E 011°07'7 8.2
2014-Sep-05 08:34N 37°25' E 010°58'8 8.5
2014-Sep-05 07:33N 37°26' E 010°48'9 8.5
2014-Sep-05 06:34N 37°28' E 010°37'9 8.9
2014-Sep-05 05:32N 37°31' E 010°26'9 8.8
2014-Sep-05 04:33N 37°33' E 010°16'94 8.4
2014-Sep-04 17:26N 37°18' E 008°19'186 8.0
2014-Sep-03 18:08N 37°05' E 004°26'5 8.1
2014-Sep-03 17:31N 37°04' E 004°20'47 7.3
2014-Sep-03 11:09N 36°58' E 003°22'29 7.1
2014-Sep-03 07:04N 36°52' E 002°46'12 7.8
2014-Sep-03 05:33N 36°50' E 002°32'33 8.2
2014-Sep-03 01:29N 36°43' E 001°51'11 8.4
2014-Sep-03 00:11N 36°41' E 001°37'24 8.3
2014-Sep-02 21:20N 36°37' E 001°08'15 8.1
2014-Sep-02 19:32N 36°32' E 000°51'8 7.5
2014-Sep-02 18:29N 36°28' E 000°42'7 7.1
2014-Sep-02 17:32N 36°25' E 000°35'7 7.3
2014-Sep-02 16:33N 36°22' E 000°27'9 7.1
2014-Sep-02 15:18N 36°18' E 000°17'16 7.4
2014-Sep-02 13:10N 36°06' E 000°04'5 7.9
2014-Sep-02 12:33N 36°02' E 000°02'6 5.6
2014-Sep-02 11:31N 35°56' E 000°04'0 0.0
2014-Sep-02 10:11N 35°56' E 000°04'0 0.0
2014-Sep-02 08:17N 35°56' E 000°04'0 0.0
2014-Sep-02 07:23N 35°56' E 000°04'0 0.0
2014-Sep-02 01:11N 35°56' E 000°04'0 0.0
2014-Sep-01 23:11N 35°56' E 000°04'0 0.0
2014-Sep-01 22:17N 35°56' E 000°04'0 0.0
2014-Sep-01 21:17N 35°56' E 000°04'0 0.0
2014-Sep-01 20:29N 35°56' E 000°04'0 0.0
2014-Sep-01 19:32N 35°56' E 000°04'0 0.0
2014-Sep-01 18:29N 35°56' E 000°05'1 1.5
2014-Sep-01 17:34N 35°56' E 000°03'2 2.0
2014-Sep-01 16:32N 35°58' E 000°03'  
2014-Aug-30 07:30N 37°13' E 004°29'6 6.8
2014-Aug-30 06:33N 37°14' E 004°37'7 6.9
2014-Aug-30 05:33N 37°15' E 004°46'7 7.4
2014-Aug-30 04:33N 37°17' E 004°55'8 7.7
2014-Aug-30 03:33N 37°18' E 005°05'8 7.8
2014-Aug-30 02:33N 37°19' E 005°14'8 7.9
2014-Aug-30 01:30N 37°22' E 005°24'16 8.3
2014-Aug-29 23:33N 37°24' E 005°45'9 8.5
2014-Aug-29 22:30N 37°25' E 005°56'9 8.5
2014-Aug-29 21:27N 37°26' E 006°07'8 8.4
2014-Aug-29 20:28N 37°28' E 006°17'73 8.0
2014-Aug-29 11:18N 37°40' E 007°48'6 7.5
2014-Aug-29 10:33N 37°41' E 007°55'18 7.6
2014-Aug-29 08:13N 37°44' E 008°17'38 7.4
2014-Aug-29 03:06N 37°51' E 009°04'18 7.2
2014-Aug-29 00:33N 37°53' E 009°27'7 6.9
2014-Aug-28 23:33N 37°54' E 009°36'7 7.1
2014-Aug-28 22:33N 37°56' E 009°45'7 7.0
2014-Aug-28 21:33N 37°57' E 009°54'7 6.8
2014-Aug-28 20:32N 37°58' E 010°03'7 7.1
2014-Aug-28 19:33N 37°59' E 010°11'7 7.3
2014-Aug-28 18:33N 37°60' E 010°20'7 7.5
2014-Aug-28 17:33N 38°01' E 010°30'8 7.6
2014-Aug-28 16:33N 38°02' E 010°39'166 7.9
2014-Aug-27 19:29N 38°19' E 014°09'11 8.3
2014-Aug-27 18:13N 38°19' E 014°23'5 8.3
2014-Aug-27 17:33N 38°19' E 014°30'8 8.3
2014-Aug-27 16:32N 38°19' E 014°40'  

Dump ship's entire track history